Accueil
METAR-TAF:

METAR-TAF

Aéroports :

Belgaum, Inde

latitude: 15-51-33N, longitude: 74-37-03E, altitude: 758 m

Observation

Le bulletin a été fait il y a 13 minutes, à 14:00 UTC
Vent calme
Température 25°C
Humidité 47%
Pression 1015 hPa
Visibilité: 8000 m

METAR: VOBM 261400Z 00000KT 8000 NSC 25/13 Q1015

Heure: 19:43 (14:13 UTC)

Prévision

Le bulletin a été fait il y a 3 heures et 13 minutes, à 11:00 UTC
Prévision valable du 26 à 12 UTC au 26 à 21 UTC
Vent 5 kt de est
Visibilité: 6000 m

TAF: VOBM 261100Z 2612/2621 09005KT 6000 NSC

Observations et prévisions météorologiques de plus de 4000 aéroports (messages METAR et TAF).

Les stations disponibles sont représentées par des disques jaunes et rouges sur la carte.

Passer la souris dessus pour voir le nom de la station.

Cliquer dessus pour voir les observations et prévisions météorologiques.

Pour changer de carte: cliquez sur les boutons verts avec une croix noire pour zoomer, sur le bouton vert avec un tiret pour effectuer un zoom arrière, ou sur les flèches vertes pour les cartes adjacentes.


METAR-TAF: